Time;durP1;ratioP1;P1;durP2;ratioP2;P2;SDS_P1;SDS_P2;PMS_P1;PMS_P2;Temp;Humidity;BMP_temperature;BMP_pressure;BME280_temperature;BME280_humidity;BME280_pressure;Samples;Min_cycle;Max_cycle;Signal;HPM_P1;HPM_P2
2022/09/26 00:01:21;;;;;;;13.53;7.80;;;;;;;-145.69;100.00;71454.13;5033759;28;20208;-74
2022/09/26 00:03:49;;;;;;;11.07;6.97;;;;;;;-145.69;100.00;71454.13;5033650;28;20207;-74
2022/09/26 00:06:17;;;;;;;12.20;6.67;;;;;;;-145.69;100.00;71462.09;5033611;28;20204;-74
2022/09/26 00:08:45;;;;;;;13.80;7.60;;;;;;;-145.69;100.00;71460.09;5033484;28;20204;-74
2022/09/26 00:11:16;;;;;;;13.53;7.47;;;;;;;-145.69;100.00;71466.06;5033130;28;20207;-74
2022/09/26 00:13:44;;;;;;;14.30;8.33;;;;;;;-145.69;100.00;71464.09;5033226;28;20228;-74
2022/09/26 00:16:14;;;;;;;15.43;8.00;;;;;;;-145.69;100.00;71458.09;5033285;28;20622;-74
2022/09/26 00:18:41;;;;;;;16.03;9.17;;;;;;;-145.69;100.00;71442.19;5033231;28;20200;-74
2022/09/26 00:21:09;;;;;;;16.53;8.63;;;;;;;-145.69;100.00;71434.22;5032445;28;20199;-74
2022/09/26 00:23:36;;;;;;;19.73;9.60;;;;;;;-145.69;100.00;71424.28;5033070;28;20299;-74
2022/09/26 00:26:04;;;;;;;14.40;8.43;;;;;;;-145.69;100.00;71422.28;5032782;28;20204;-74
2022/09/26 00:28:31;;;;;;;13.73;8.07;;;;;;;-145.69;100.00;71420.31;5033003;28;20203;-74
2022/09/26 00:31:03;;;;;;;15.83;8.60;;;;;;;-145.69;100.00;71424.28;5033145;28;20204;-74
2022/09/26 00:33:29;;;;;;;18.67;10.90;;;;;;;-145.69;100.00;71434.22;5031738;28;20461;-73
2022/09/26 00:35:56;;;;;;;15.10;8.43;;;;;;;-145.69;100.00;71432.25;5032664;28;20200;-73
2022/09/26 00:38:24;;;;;;;17.67;9.17;;;;;;;-145.69;100.00;71434.22;5032796;28;20200;-73
2022/09/26 00:40:51;;;;;;;17.00;8.00;;;;;;;-145.69;100.00;71426.28;5033039;28;20258;-74
2022/09/26 00:43:31;;;;;;;18.07;8.67;;;;;;;-145.69;100.00;71430.25;5032086;28;20196;-74
2022/09/26 00:46:03;;;;;;;16.30;8.00;;;;;;;-145.69;100.00;71434.22;5032885;28;20249;-74
2022/09/26 00:48:30;;;;;;;16.40;7.93;;;;;;;-145.69;100.00;71430.25;5032853;28;20211;-74
2022/09/26 00:50:58;;;;;;;14.60;7.50;;;;;;;-145.69;100.00;71432.25;5032635;28;20208;-73
2022/09/26 00:53:30;;;;;;;17.77;9.13;;;;;;;-145.69;100.00;71436.22;5032777;28;20228;-74
2022/09/26 00:56:01;;;;;;;15.30;7.47;;;;;;;-145.69;100.00;71442.19;5032800;28;20204;-74
2022/09/26 00:58:32;;;;;;;14.63;7.97;;;;;;;-145.69;100.00;71444.19;5032739;28;20681;-74
2022/09/26 01:01:00;;;;;;;12.10;7.60;;;;;;;-145.69;100.00;71450.16;5032755;28;20570;-74
2022/09/26 01:03:29;;;;;;;11.87;7.40;;;;;;;-145.69;100.00;71466.06;5032517;28;20250;-74
2022/09/26 01:05:56;;;;;;;12.27;7.07;;;;;;;-145.69;100.00;71464.09;5032976;28;20196;-74
2022/09/26 01:08:30;;;;;;;16.77;8.53;;;;;;;-145.69;100.00;71458.09;5032015;28;20188;-74
2022/09/26 01:10:58;;;;;;;16.30;8.93;;;;;;;-145.69;100.00;71452.16;5032811;28;20290;-74
2022/09/26 01:13:25;;;;;;;20.07;10.23;;;;;;;-145.69;100.00;71448.16;5032563;28;20220;-73
2022/09/26 01:15:52;;;;;;;20.20;9.10;;;;;;;-145.69;100.00;71442.19;5032463;28;20232;-73
2022/09/26 01:18:20;;;;;;;20.70;10.43;;;;;;;-145.69;100.00;71438.22;5032764;28;20598;-73
2022/09/26 01:20:56;;;;;;;19.13;9.47;;;;;;;-145.69;100.00;71430.25;5032699;28;20204;-73
2022/09/26 01:24:05;;;;;;;22.40;10.37;;;;;;;-145.69;100.00;71428.25;5032341;28;20670;-74
2022/09/26 01:26:53;;;;;;;28.60;10.83;;;;;;;-145.69;100.00;71430.25;5032378;28;20532;-73
2022/09/26 01:29:59;;;;;;;25.00;10.90;;;;;;;-145.69;100.00;71432.25;5032332;28;20203;-73
2022/09/26 01:32:51;;;;;;;22.70;11.17;;;;;;;-145.69;100.00;71432.25;5032439;28;20212;-73
2022/09/26 01:35:33;;;;;;;25.27;11.20;;;;;;;-145.69;100.00;71434.22;5032137;28;20234;-74
2022/09/26 01:38:13;;;;;;;17.80;9.20;;;;;;;-145.69;100.00;71442.19;5032187;28;20610;-73
2022/09/26 01:40:49;;;;;;;13.07;7.87;;;;;;;-145.69;100.00;71446.16;5036112;28;20200;-73
2022/09/26 01:43:23;;;;;;;13.13;7.57;;;;;;;-145.69;100.00;71448.16;5036252;28;20226;-73
2022/09/26 01:45:53;;;;;;;15.07;7.40;;;;;;;-145.69;100.00;71450.16;5036224;28;20202;-73
2022/09/26 01:48:30;;;;;;;14.83;7.67;;;;;;;-145.69;100.00;71450.16;5035858;28;20207;-74
2022/09/26 01:51:03;;;;;;;17.17;7.97;;;;;;;-145.69;100.00;71450.16;5036068;28;20208;-73
2022/09/26 01:53:39;;;;;;;18.13;8.80;;;;;;;-145.69;100.00;71452.16;5035794;28;20211;-74
2022/09/26 01:56:11;;;;;;;17.40;8.73;;;;;;;-145.69;100.00;71454.13;5035953;28;20196;-73
2022/09/26 01:58:43;;;;;;;16.33;7.90;;;;;;;-145.69;100.00;71454.13;5036022;28;20203;-73
2022/09/26 02:01:14;;;;;;;17.77;9.00;;;;;;;-145.69;100.00;71454.13;5035535;28;20674;-73
2022/09/26 02:03:46;;;;;;;16.40;8.50;;;;;;;-145.69;100.00;71460.09;5035267;28;20654;-73
2022/09/26 02:06:16;;;;;;;24.13;9.13;;;;;;;-145.69;100.00;71466.06;5035651;28;20650;-73
2022/09/26 02:08:46;;;;;;;15.30;8.00;;;;;;;-145.69;100.00;71458.09;5035720;28;20228;-73
2022/09/26 02:11:15;;;;;;;15.07;7.73;;;;;;;-145.69;100.00;71462.09;5035450;28;20211;-73
2022/09/26 02:13:47;;;;;;;15.77;7.40;;;;;;;-145.69;100.00;71458.09;5035495;28;20204;-73
2022/09/26 02:16:20;;;;;;;11.67;6.73;;;;;;;-145.69;100.00;71466.06;5035342;28;20228;-73
2022/09/26 02:18:53;;;;;;;12.43;6.77;;;;;;;-145.69;100.00;71458.09;5035551;28;20585;-74
2022/09/26 02:21:21;;;;;;;11.50;6.23;;;;;;;-145.69;100.00;71454.13;5035463;28;20204;-73
2022/09/26 02:23:51;;;;;;;10.37;5.60;;;;;;;-145.69;100.00;71454.13;5035072;28;20670;-73
2022/09/26 02:26:18;;;;;;;11.40;5.87;;;;;;;-145.69;100.00;71446.16;5035128;28;20200;-73
2022/09/26 02:28:45;;;;;;;11.03;5.30;;;;;;;-145.69;100.00;71442.19;5034990;28;20208;-73
2022/09/26 02:31:21;;;;;;;9.33;6.00;;;;;;;-145.69;100.00;71442.19;5035192;28;20200;-73
2022/09/26 02:33:50;;;;;;;10.57;6.23;;;;;;;-145.69;100.00;71436.22;5034747;28;20230;-73
2022/09/26 02:36:19;;;;;;;10.77;6.20;;;;;;;-145.69;100.00;71436.22;5035046;28;20203;-74
2022/09/26 02:38:45;;;;;;;8.97;4.90;;;;;;;-145.69;100.00;71442.19;5035105;28;20204;-74
2022/09/26 02:41:21;;;;;;;11.68;6.85;;;;;;;-145.69;100.00;71436.22;5033854;28;20969;-74
2022/09/26 02:44:02;;;;;;;8.40;5.50;;;;;;;-145.69;100.00;71442.19;5035053;28;20203;-73
2022/09/26 02:47:05;;;;;;;9.10;5.27;;;;;;;-145.69;100.00;71436.22;5034966;28;20202;-73
2022/09/26 02:49:54;;;;;;;9.87;5.50;;;;;;;-145.69;100.00;71446.16;5004220;28;20206;-74
2022/09/26 02:52:36;;;;;;;8.27;5.50;;;;;;;-145.69;100.00;71438.22;5034815;28;20207;-74
2022/09/26 02:55:13;;;;;;;8.43;5.67;;;;;;;-145.69;100.00;71438.22;5034530;28;20232;-73
2022/09/26 02:57:49;;;;;;;8.20;5.23;;;;;;;-145.69;100.00;71440.19;5034811;28;20211;-73
2022/09/26 03:00:19;;;;;;;12.40;5.33;;;;;;;-145.69;100.00;71438.22;5034753;28;20295;-73
2022/09/26 03:02:52;;;;;;;8.77;5.10;;;;;;;-145.69;100.00;71434.22;5034343;28;20204;-74
2022/09/26 03:05:23;;;;;;;13.07;5.63;;;;;;;-145.69;100.00;71434.22;5034785;28;20222;-75
2022/09/26 03:07:55;;;;;;;10.53;5.73;;;;;;;-145.69;100.00;71432.25;5034179;28;20200;-74
2022/09/26 03:10:22;;;;;;;11.83;6.00;;;;;;;-145.69;100.00;71438.22;5034377;28;20250;-75
2022/09/26 03:12:50;;;;;;;10.20;5.60;;;;;;;-145.69;100.00;71434.22;5034342;28;20204;-74
2022/09/26 03:15:18;;;;;;;9.70;5.90;;;;;;;-145.69;100.00;71434.22;5034231;28;20235;-74
2022/09/26 03:17:50;;;;;;;11.17;5.80;;;;;;;-145.69;100.00;71436.22;5034800;28;20209;-74
2022/09/26 03:20:21;;;;;;;10.60;5.37;;;;;;;-145.69;100.00;71436.22;5034409;28;20208;-74
2022/09/26 03:22:48;;;;;;;7.97;5.10;;;;;;;-145.69;100.00;71438.22;5034300;28;20219;-74
2022/09/26 03:25:19;;;;;;;8.73;5.53;;;;;;;-145.69;100.00;71438.22;5034170;28;20296;-75
2022/09/26 03:27:47;;;;;;;9.60;5.23;;;;;;;-145.69;100.00;71432.25;5034099;28;20231;-74
2022/09/26 03:30:15;;;;;;;12.53;6.00;;;;;;;-145.69;100.00;71432.25;5034181;28;20641;-74
2022/09/26 03:32:42;;;;;;;8.50;5.77;;;;;;;-145.69;100.00;71434.22;5033347;28;20682;-75
2022/09/26 03:35:09;;;;;;;9.03;5.13;;;;;;;-145.69;100.00;71432.25;5033680;28;20235;-74
2022/09/26 03:37:37;;;;;;;7.43;5.20;;;;;;;-145.69;100.00;71442.19;5033807;28;20203;-74
2022/09/26 03:40:05;;;;;;;9.60;4.83;;;;;;;-145.69;100.00;71434.22;5034142;28;20211;-73
2022/09/26 03:42:32;;;;;;;6.20;4.23;;;;;;;-145.69;100.00;71432.25;5034053;28;20294;-74
2022/09/26 03:44:58;;;;;;;9.00;4.80;;;;;;;-145.69;100.00;71430.25;5033678;28;20651;-74
2022/09/26 03:47:25;;;;;;;7.60;4.63;;;;;;;-145.69;100.00;71424.28;5033513;28;20203;-74
2022/09/26 03:49:52;;;;;;;7.93;4.70;;;;;;;-145.69;100.00;71422.28;5033493;28;20668;-74
2022/09/26 03:52:18;;;;;;;8.13;5.20;;;;;;;-145.69;100.00;71414.34;5033639;28;20199;-74
2022/09/26 03:54:46;;;;;;;11.23;5.33;;;;;;;-145.69;100.00;71418.31;5033565;28;20227;-74
2022/09/26 03:57:13;;;;;;;7.73;4.70;;;;;;;-145.69;100.00;71424.28;5033727;28;20196;-74
2022/09/26 03:59:40;;;;;;;6.80;4.47;;;;;;;-145.69;100.00;71420.31;5033229;28;20200;-74
2022/09/26 04:02:07;;;;;;;8.87;4.80;;;;;;;-145.69;100.00;71406.38;5032973;28;20203;-74
2022/09/26 04:04:33;;;;;;;9.17;5.20;;;;;;;-145.69;100.00;71402.41;5033189;28;20208;-74
2022/09/26 04:07:00;;;;;;;7.37;4.67;;;;;;;-145.69;100.00;71392.44;5033564;28;20215;-74
2022/09/26 04:09:26;;;;;;;8.50;5.33;;;;;;;-145.69;100.00;71394.44;5033379;28;20685;-74
2022/09/26 04:11:54;;;;;;;12.90;5.80;;;;;;;-145.69;100.00;71390.47;5033042;28;20200;-74
2022/09/26 04:14:21;;;;;;;8.93;5.63;;;;;;;-145.69;100.00;71392.44;5033325;28;20227;-74
2022/09/26 04:16:47;;;;;;;11.13;5.90;;;;;;;-145.69;100.00;71388.47;5033345;28;20232;-74
2022/09/26 04:19:14;;;;;;;11.83;6.90;;;;;;;-145.69;100.00;71396.44;5033104;28;20200;-73
2022/09/26 04:21:42;;;;;;;13.77;6.70;;;;;;;-145.69;100.00;71396.44;5033268;28;20200;-74
2022/09/26 04:24:14;;;;;;;10.40;5.97;;;;;;;-145.69;100.00;71400.41;5033125;28;20618;-74
2022/09/26 04:26:41;;;;;;;11.90;7.00;;;;;;;-145.69;100.00;71394.44;5032777;28;20274;-74
2022/09/26 04:29:09;;;;;;;12.23;6.60;;;;;;;-145.69;100.00;71402.41;5032483;28;20204;-73
2022/09/26 04:31:37;;;;;;;10.47;6.37;;;;;;;-145.69;100.00;71408.38;5032480;28;20207;-74
2022/09/26 04:34:04;;;;;;;12.03;6.30;;;;;;;-145.69;100.00;71398.41;5033060;28;20204;-73
2022/09/26 04:36:31;;;;;;;10.17;6.20;;;;;;;-145.69;100.00;71390.47;5032847;28;20297;-73
2022/09/26 04:38:58;;;;;;;11.33;6.60;;;;;;;-145.69;100.00;71386.47;5033101;28;20408;-73
2022/09/26 04:41:26;;;;;;;10.53;5.80;;;;;;;-145.69;100.00;71386.47;5032814;28;20712;-73
2022/09/26 04:43:53;;;;;;;11.77;5.77;;;;;;;-145.69;100.00;71388.47;5032913;28;20223;-74
2022/09/26 04:46:24;;;;;;;9.83;4.73;;;;;;;-145.69;100.00;71390.47;5032806;28;20203;-74
2022/09/26 04:48:51;;;;;;;9.97;5.83;;;;;;;-145.69;100.00;71394.44;5032829;28;20681;-74
2022/09/26 04:51:19;;;;;;;9.10;5.60;;;;;;;-145.69;100.00;71388.47;5033005;28;20208;-73
2022/09/26 04:53:45;;;;;;;10.77;5.90;;;;;;;-145.69;100.00;71390.47;5032554;28;20662;-74
2022/09/26 04:56:14;;;;;;;11.20;6.30;;;;;;;-145.69;100.00;71398.41;5032673;28;20297;-74
2022/09/26 04:58:42;;;;;;;10.67;5.87;;;;;;;-145.69;100.00;71396.44;5032683;28;20207;-74
2022/09/26 05:01:11;;;;;;;9.37;5.57;;;;;;;-145.69;100.00;71394.44;5032429;28;20200;-74
2022/09/26 05:03:40;;;;;;;10.43;5.43;;;;;;;-145.69;100.00;71390.47;5032727;28;20192;-74
2022/09/26 05:06:07;;;;;;;8.20;4.97;;;;;;;-145.69;100.00;71394.44;5032401;28;20211;-74
2022/09/26 05:08:34;;;;;;;10.70;5.63;;;;;;;-145.69;100.00;71390.47;5032728;28;20609;-74
2022/09/26 05:11:02;;;;;;;10.13;5.53;;;;;;;-145.69;100.00;71390.47;5032377;28;20687;-74
2022/09/26 05:13:29;;;;;;;9.53;5.87;;;;;;;-145.69;100.00;71392.44;5032814;28;20208;-74
2022/09/26 05:15:58;;;;;;;8.70;5.87;;;;;;;-145.69;100.00;71400.41;5036129;28;20244;-74
2022/09/26 05:18:26;;;;;;;9.97;5.70;;;;;;;-145.69;100.00;71402.41;5036714;28;20203;-74
2022/09/26 05:20:56;;;;;;;10.43;5.90;;;;;;;-145.69;100.00;71398.41;5036660;28;20231;-74
2022/09/26 05:26:21;;;;;;;9.27;5.60;;;;;;;-145.69;100.00;71410.34;5036554;28;20192;-74
2022/09/26 05:28:49;;;;;;;10.47;5.73;;;;;;;-145.69;100.00;71410.34;5035988;28;20246;-74
2022/09/26 05:31:16;;;;;;;10.30;5.57;;;;;;;-145.69;100.00;71408.38;5036418;28;20200;-74
2022/09/26 05:33:43;;;;;;;12.00;5.70;;;;;;;-145.69;100.00;71414.34;5036231;28;20558;-74
2022/09/26 05:36:11;;;;;;;8.83;5.00;;;;;;;-145.69;100.00;71418.31;5035872;28;20231;-74
2022/09/26 05:38:38;;;;;;;7.93;4.90;;;;;;;-145.69;100.00;71422.28;5036010;28;20200;-74
2022/09/26 05:41:03;;;;;;;9.93;5.73;;;;;;;-145.69;100.00;71428.25;5036088;28;20203;-74
2022/09/26 05:43:33;;;;;;;14.40;6.90;;;;;;;-145.69;100.00;71432.25;5036460;28;20716;-73
2022/09/26 05:46:02;;;;;;;10.17;4.93;;;;;;;-145.69;100.00;71416.31;5036051;28;20681;-74
2022/09/26 05:48:31;;;;;;;11.50;5.87;;;;;;;-145.69;100.00;71422.28;5035853;28;20664;-75
2022/09/26 05:51:01;;;;;;;10.53;5.30;;;;;;;-145.69;100.00;71426.28;5035904;28;20206;-74
2022/09/26 05:53:29;;;;;;;8.47;4.73;;;;;;;-145.69;100.00;71426.28;5035627;28;20647;-74
2022/09/26 05:55:56;;;;;;;8.27;3.90;;;;;;;-145.69;100.00;71432.25;5036051;28;20234;-74
2022/09/26 05:58:22;;;;;;;5.90;3.97;;;;;;;-145.69;100.00;71426.28;5035932;28;20215;-74
2022/09/26 06:00:50;;;;;;;5.57;3.60;;;;;;;-145.69;100.00;71426.28;5035621;28;20196;-74
2022/09/26 06:03:17;;;;;;;10.80;5.20;;;;;;;-145.69;100.00;71428.25;5035480;28;20211;-74
2022/09/26 06:05:43;;;;;;;6.60;3.40;;;;;;;-145.69;100.00;71440.19;5035502;28;20698;-73
2022/09/26 06:08:10;;;;;;;7.30;3.53;;;;;;;-145.69;100.00;71442.19;5035879;28;20200;-74
2022/09/26 06:10:39;;;;;;;9.70;3.70;;;;;;;-145.69;100.00;71458.09;5035589;28;20630;-74
2022/09/26 06:13:06;;;;;;;4.70;2.93;;;;;;;-145.69;100.00;71464.09;5035721;28;20215;-74
2022/09/26 06:15:33;;;;;;;6.10;3.40;;;;;;;-145.69;100.00;71468.06;5034991;28;20315;-74
2022/09/26 06:18:00;;;;;;;8.80;3.80;;;;;;;-145.69;100.00;71454.13;5035490;28;20235;-74
2022/09/26 06:20:27;;;;;;;8.77;3.60;;;;;;;-145.69;100.00;71438.22;5035615;28;20227;-74
2022/09/26 06:22:54;;;;;;;14.77;4.13;;;;;;;-145.69;100.00;71428.25;5035479;28;20200;-74
2022/09/26 06:25:21;;;;;;;7.17;2.83;;;;;;;-145.69;100.00;71428.25;5034929;28;20298;-73
2022/09/26 06:27:49;;;;;;;8.30;2.77;;;;;;;-145.69;100.00;71430.25;5035323;28;20204;-73
2022/09/26 06:30:15;;;;;;;6.97;2.77;;;;;;;-145.69;100.00;71434.22;5035078;28;20539;-74
2022/09/26 06:32:45;;;;;;;6.00;2.53;;;;;;;-145.69;100.00;71422.28;5034913;28;20204;-73
2022/09/26 06:35:12;;;;;;;10.87;3.30;;;;;;;-145.69;100.00;71412.34;5034404;28;20609;-73
2022/09/26 06:37:38;;;;;;;4.73;2.67;;;;;;;-145.69;100.00;71410.34;5015554;28;20247;-74
2022/09/26 06:40:07;;;;;;;6.90;2.27;;;;;;;-145.69;100.00;71402.41;5015354;28;20205;-74
2022/09/26 06:42:36;;;;;;;5.17;2.47;;;;;;;-145.69;100.00;71402.41;5015430;28;20227;-74
2022/09/26 06:45:06;;;;;;;5.57;2.37;;;;;;;-145.69;100.00;71394.44;5014698;28;20251;-74
2022/09/26 06:47:32;;;;;;;4.27;2.20;;;;;;;-145.69;100.00;71386.47;5015314;28;20212;-74
2022/09/26 06:49:59;;;;;;;9.10;2.40;;;;;;;-145.69;100.00;71384.47;5015354;28;20544;-74
2022/09/26 06:52:25;;;;;;;5.83;1.70;;;;;;;-145.69;100.00;71366.56;5015278;28;20208;-74
2022/09/26 06:54:53;;;;;;;9.40;1.97;;;;;;;-145.69;100.00;71376.53;5014790;28;20209;-73
2022/09/26 06:57:20;;;;;;;3.70;2.23;;;;;;;-145.69;100.00;71362.59;5015259;28;20201;-74
2022/09/26 06:59:46;;;;;;;2.93;2.20;;;;;;;-145.69;100.00;71342.69;5022856;28;20398;-74
2022/09/26 07:02:15;;;;;;;5.93;2.47;;;;;;;-145.69;100.00;71330.75;5034772;28;20203;-74
2022/09/26 07:04:42;;;;;;;4.90;2.53;;;;;;;-145.69;100.00;71330.75;5034644;28;20204;-73
2022/09/26 07:07:08;;;;;;;6.90;2.47;;;;;;;-145.69;100.00;71314.84;5034640;28;20208;-73
2022/09/26 07:09:35;;;;;;;4.47;2.20;;;;;;;-145.69;100.00;71306.88;5034580;28;20208;-73
2022/09/26 07:12:01;;;;;;;4.20;2.37;;;;;;;-145.69;100.00;71275.03;5034426;28;20200;-74
2022/09/26 07:14:29;;;;;;;6.00;2.33;;;;;;;-145.69;100.00;71247.19;5034063;28;20200;-73
2022/09/26 07:16:56;;;;;;;2.70;1.83;;;;;;;-145.69;100.00;71225.31;5034083;28;20243;-73
2022/09/26 07:19:24;;;;;;;3.17;1.83;;;;;;;-145.69;100.00;71179.53;5034506;28;20554;-74
2022/09/26 07:21:50;;;;;;;5.73;2.20;;;;;;;-145.69;100.00;71163.63;5034330;28;20211;-73
2022/09/26 07:24:17;;;;;;;4.30;1.80;;;;;;;-145.69;100.00;71175.56;5034262;28;20196;-74
2022/09/26 07:26:43;;;;;;;3.53;1.80;;;;;;;-145.69;100.00;71159.63;5033977;28;20211;-74
2022/09/26 07:29:11;;;;;;;4.35;1.88;;;;;;;-145.69;100.00;71127.81;5033529;28;20544;-73
2022/09/26 07:31:38;;;;;;;3.70;2.03;;;;;;;-145.69;100.00;71131.78;5034185;28;20212;-74
2022/09/26 07:34:04;;;;;;;3.13;1.30;;;;;;;-145.69;100.00;71167.59;5034089;28;20286;-73
2022/09/26 07:36:32;;;;;;;3.35;1.70;;;;;;;-145.69;100.00;71153.66;5033280;28;20240;-74
2022/09/26 07:39:00;;;;;;;5.72;1.90;;;;;;;-145.69;100.00;71203.41;5034335;28;20200;-75
2022/09/26 07:41:29;;;;;;;2.53;1.90;;;;;;;-145.69;100.00;71253.16;5033576;28;20211;-75
2022/09/26 07:43:56;;;;;;;4.00;2.10;;;;;;;-145.69;100.00;71251.16;5033974;28;20223;-74
2022/09/26 07:51:55;;;;;;;3.90;2.17;;;;;;;-145.69;100.00;71209.38;5033564;28;20207;-75
2022/09/26 07:54:22;;;;;;;3.28;1.60;;;;;;;-145.69;100.00;71191.47;5033886;28;20204;-75
2022/09/26 07:56:49;;;;;;;6.13;2.10;;;;;;;-145.69;100.00;71199.44;5033340;28;20228;-75
2022/09/26 07:59:15;;;;;;;5.73;1.87;;;;;;;-145.69;100.00;71177.53;5033473;28;20219;-75
2022/09/26 08:01:42;;;;;;;4.03;1.70;;;;;;;-145.69;100.00;71165.59;5033545;28;20680;-75
2022/09/26 08:04:10;;;;;;;3.70;1.47;;;;;;;-145.69;100.00;71159.63;5033416;28;20211;-75
2022/09/26 08:06:37;;;;;;;1.97;1.40;;;;;;;-145.69;100.00;71163.63;5033104;28;20200;-75
2022/09/26 08:09:05;;;;;;;5.27;1.80;;;;;;;-145.69;100.00;71147.69;5033523;28;20200;-75
2022/09/26 08:11:32;;;;;;;3.70;2.30;;;;;;;-145.69;100.00;71139.75;5033567;28;20204;-75
2022/09/26 08:13:59;;;;;;;5.03;1.70;;;;;;;-145.69;100.00;71139.75;5033162;28;20220;-77
2022/09/26 08:16:25;;;;;;;3.53;1.60;;;;;;;-145.69;100.00;71121.84;5032820;28;20240;-75
2022/09/26 08:18:53;;;;;;;4.82;1.98;;;;;;;-145.69;100.00;71127.81;5031719;28;20448;-77
2022/09/26 08:21:21;;;;;;;2.47;1.67;;;;;;;-145.69;100.00;71099.94;5033453;28;20200;-76
2022/09/26 08:23:48;;;;;;;3.47;1.87;;;;;;;-145.69;100.00;71062.13;5033099;28;20200;-76
2022/09/26 08:26:20;;;;;;;4.95;1.80;;;;;;;-145.69;100.00;71052.19;5033247;28;20196;-76
2022/09/26 08:28:46;;;;;;;5.10;1.80;;;;;;;-145.69;100.00;71050.22;5033395;28;20200;-77
2022/09/26 08:31:13;;;;;;;4.10;1.67;;;;;;;-145.69;100.00;71050.22;5033029;28;20654;-76
2022/09/26 08:33:40;;;;;;;3.53;1.58;;;;;;;-145.69;100.00;71072.09;5032741;28;20204;-76
2022/09/26 08:36:08;;;;;;;3.08;1.60;;;;;;;-145.69;100.00;71052.19;5033129;28;20513;-76
2022/09/26 08:38:36;;;;;;;5.25;1.73;;;;;;;-145.69;100.00;71066.13;5032874;28;20212;-76
2022/09/26 08:41:16;;;;;;;3.30;1.60;;;;;;;-145.69;100.00;71044.22;5032380;28;20291;-76
2022/09/26 08:43:56;;;;;;;2.67;1.25;;;;;;;-145.69;100.00;71020.34;5032779;28;20200;-76
2022/09/26 08:49:33;;;;;;;3.63;1.58;;;;;;;-145.69;100.00;70964.66;5032377;28;20688;-76
2022/09/26 08:52:06;;;;;;;5.90;1.80;;;;;;;-145.69;100.00;70960.66;5032778;28;20290;-77
2022/09/26 08:54:36;;;;;;;5.55;2.00;;;;;;;-145.69;100.00;70946.75;5032604;28;20211;-77
2022/09/26 08:57:09;;;;;;;4.30;1.65;;;;;;;-145.69;100.00;70980.56;5032862;28;20231;-76
2022/09/26 08:59:41;;;;;;;7.28;1.95;;;;;;;-145.69;100.00;70988.53;5032724;28;20198;-74
2022/09/26 09:02:16;;;;;;;5.63;2.72;;;;;;;-145.69;100.00;70970.63;5032901;28;20204;-76
2022/09/26 09:04:49;;;;;;;7.10;2.40;;;;;;;-145.69;100.00;70940.78;5032622;28;20199;-75
2022/09/26 09:07:21;;;;;;;5.63;2.40;;;;;;;-145.69;100.00;70974.59;5032975;28;20212;-76
2022/09/26 09:09:48;;;;;;;6.72;3.00;;;;;;;-145.69;100.00;71034.28;5032853;28;20207;-76
2022/09/26 09:12:22;;;;;;;8.93;3.03;;;;;;;-145.69;100.00;71004.44;5032140;28;20207;-76
2022/09/26 09:15:03;;;;;;;7.97;3.08;;;;;;;-145.69;100.00;70982.56;5032681;28;20561;-77
2022/09/26 09:17:36;;;;;;;8.30;3.05;;;;;;;-145.69;100.00;71006.44;5032475;28;20247;-77
2022/09/26 09:20:14;;;;;;;9.23;2.75;;;;;;;-145.69;100.00;70974.59;5032832;28;20203;-76
2022/09/26 09:22:52;;;;;;;5.60;2.80;;;;;;;-145.69;100.00;70966.63;5032191;28;20724;-75
2022/09/26 09:25:23;;;;;;;4.80;2.30;;;;;;;-145.69;100.00;70920.88;5032419;28;20210;-76
2022/09/26 09:28:08;;;;;;;5.45;2.58;;;;;;;-145.69;100.00;70928.84;5032445;28;20207;-75
2022/09/26 09:30:42;;;;;;;3.47;1.80;;;;;;;-145.69;100.00;70928.84;5032775;28;20563;-76
2022/09/26 09:33:14;;;;;;;2.78;1.55;;;;;;;-145.69;100.00;70972.59;5032116;28;20203;-75
2022/09/26 09:35:44;;;;;;;6.72;2.00;;;;;;;-145.69;100.00;70988.53;5032323;28;20222;-76
2022/09/26 09:38:16;;;;;;;2.38;1.40;;;;;;;-145.69;100.00;70950.72;5032572;28;20211;-76
2022/09/26 09:40:49;;;;;;;3.92;1.73;;;;;;;-145.69;100.00;70861.19;5032638;28;20200;-76
2022/09/26 09:43:25;;;;;;;5.18;1.55;;;;;;;-145.69;100.00;70791.56;5032494;28;20208;-76
2022/09/26 09:45:57;;;;;;;2.67;1.38;;;;;;;-145.69;96.26;70785.59;5032516;28;20298;-76
2022/09/26 09:48:26;;;;;;;2.42;1.27;;;;;;;-145.69;95.24;70749.78;5032284;28;20735;-75
2022/09/26 09:51:16;;;;;;;4.32;1.40;;;;;;;-145.69;91.93;70793.53;5032326;28;20650;-76
2022/09/26 09:54:17;;;;;;;2.65;1.35;;;;;;;-145.69;95.53;70813.44;5012783;28;20196;-76
2022/09/26 09:56:55;;;;;;;2.60;1.08;;;;;;;-145.69;95.55;70805.47;5008811;28;20228;-76
2022/09/26 09:59:40;;;;;;;1.20;0.90;;;;;;;-145.69;88.39;70867.16;5012868;28;20208;-76
2022/09/26 10:02:20;;;;;;;1.30;0.90;;;;;;;-145.69;92.54;70821.41;5015384;28;20536;-75
2022/09/26 10:04:55;;;;;;;2.17;0.80;;;;;;;-145.69;85.00;70817.41;5033390;28;20196;-75
2022/09/26 10:07:21;;;;;;;3.92;1.20;;;;;;;-145.69;93.08;70809.47;5035114;28;20203;-76
2022/09/26 10:09:50;;;;;;;3.75;0.95;;;;;;;-145.69;87.36;70777.63;5035037;28;20212;-75
2022/09/26 10:12:19;;;;;;;3.40;1.10;;;;;;;-145.69;87.43;70785.59;5034935;28;20215;-75
2022/09/26 10:14:50;;;;;;;2.05;1.10;;;;;;;-145.69;84.68;70809.47;5035464;28;20207;-76
2022/09/26 10:17:20;;;;;;;2.25;1.15;;;;;;;-145.69;83.28;70807.47;5035150;28;20705;-76
2022/09/26 10:19:48;;;;;;;1.80;0.70;;;;;;;-145.69;83.68;70817.41;5035429;28;20211;-75
2022/09/26 10:22:24;;;;;;;1.42;0.90;;;;;;;-145.69;84.39;70817.41;5035319;28;20227;-76
2022/09/26 10:24:59;;;;;;;1.88;0.88;;;;;;;-145.69;85.49;70781.59;5035618;28;20254;-76
2022/09/26 10:27:33;;;;;;;2.72;0.90;;;;;;;-145.69;87.56;70690.09;5035415;28;20209;-75
2022/09/26 10:30:02;;;;;;;3.80;0.80;;;;;;;-145.69;82.31;70638.34;5034861;28;20218;-76
2022/09/26 10:32:30;;;;;;;2.63;1.00;;;;;;;-145.69;80.46;70612.50;5033437;28;20924;-76
2022/09/26 10:35:07;;;;;;;1.58;0.95;;;;;;;-145.69;72.00;70602.56;5035305;28;20211;-75
2022/09/26 10:37:37;;;;;;;1.35;0.90;;;;;;;-145.69;73.72;70604.53;5025889;28;20578;-75
2022/09/26 10:43:20;;;;;;;2.83;0.90;;;;;;;-145.69;75.12;70574.69;5015187;28;20319;-77
2022/09/26 10:45:47;;;;;;;3.55;1.10;;;;;;;-145.69;70.41;70574.69;5015370;28;20240;-77
2022/09/26 10:48:20;;;;;;;2.63;1.15;;;;;;;-145.69;71.02;70576.69;5015285;28;20212;-77
2022/09/26 10:50:50;;;;;;;1.70;0.70;;;;;;;-145.69;71.89;70558.78;5015156;28;20208;-77
2022/09/26 10:53:21;;;;;;;2.50;0.85;;;;;;;-145.69;75.84;70574.69;5014445;28;20698;-78
2022/09/26 10:55:56;;;;;;;2.67;1.10;;;;;;;-145.69;73.96;70644.31;5033711;28;20291;-76
2022/09/26 10:58:26;;;;;;;2.28;1.10;;;;;;;-145.69;81.47;70688.09;5021454;28;20240;-75
2022/09/26 11:00:54;;;;;;;3.78;1.15;;;;;;;-145.69;89.43;70706.00;5023583;28;20196;-76
2022/09/26 11:03:26;;;;;;;4.30;1.30;;;;;;;-145.69;82.35;70743.81;5033782;28;20219;-76
2022/09/26 11:05:59;;;;;;;1.10;0.85;;;;;;;-145.69;85.95;70783.59;5034902;28;20215;-75
2022/09/26 11:08:27;;;;;;;4.22;1.10;;;;;;;-145.69;88.10;70789.56;5034431;28;20203;-76
2022/09/26 11:10:55;;;;;;;4.55;1.10;;;;;;;-145.69;86.36;70759.72;5034585;28;20215;-75
2022/09/26 11:13:23;;;;;;;1.83;1.15;;;;;;;-145.69;89.73;70706.00;5034499;28;20208;-76
2022/09/26 11:16:00;;;;;;;2.25;1.23;;;;;;;-145.69;81.57;70626.41;5034009;28;20227;-76
2022/09/26 11:18:35;;;;;;;2.20;1.25;;;;;;;-145.69;77.80;70594.59;5034591;28;20657;-76
2022/09/26 11:21:10;;;;;;;1.27;1.00;;;;;;;-145.69;80.90;70600.56;5034306;28;20295;-76
2022/09/26 11:23:44;;;;;;;2.13;0.93;;;;;;;-145.69;78.67;70548.84;5034390;28;20558;-76
2022/09/26 11:26:18;;;;;;;2.38;0.80;;;;;;;-145.69;71.92;70524.97;5034237;28;20658;-75
2022/09/26 11:28:49;;;;;;;2.55;1.15;;;;;;;-145.69;77.44;70503.06;5034125;28;20680;-76
2022/09/26 11:31:24;;;;;;;1.80;0.98;;;;;;;-145.69;75.70;70483.19;5034243;28;20207;-76
2022/09/26 11:33:52;;;;;;;3.20;1.20;;;;;;;-145.69;73.33;70447.38;5034244;28;20203;-76
2022/09/26 11:36:46;;;;;;;2.15;1.00;;;;;;;-145.69;73.81;70522.97;5034024;28;20223;-76